sensor_id;sensor_type;location;lat;lon;timestamp;temperature;humidity
24902;DHT22;31328;51.402;0.016;2023-02-03T00:01:36;10.00;99.90
24902;DHT22;31328;51.402;0.016;2023-02-03T00:04:03;10.00;99.90
24902;DHT22;31328;51.402;0.016;2023-02-03T00:06:32;9.90;99.90
24902;DHT22;31328;51.402;0.016;2023-02-03T00:08:59;9.90;99.90
24902;DHT22;31328;51.402;0.016;2023-02-03T00:11:29;9.90;99.90
24902;DHT22;31328;51.402;0.016;2023-02-03T00:13:55;9.90;99.90
24902;DHT22;31328;51.402;0.016;2023-02-03T00:16:21;9.90;99.90
24902;DHT22;31328;51.402;0.016;2023-02-03T00:18:48;9.90;99.90
24902;DHT22;31328;51.402;0.016;2023-02-03T00:21:14;9.80;99.90
24902;DHT22;31328;51.402;0.016;2023-02-03T00:23:41;9.90;99.90
24902;DHT22;31328;51.402;0.016;2023-02-03T00:26:13;9.80;99.90
24902;DHT22;31328;51.402;0.016;2023-02-03T00:28:41;9.90;99.90
24902;DHT22;31328;51.402;0.016;2023-02-03T00:31:21;9.90;99.90
24902;DHT22;31328;51.402;0.016;2023-02-03T00:33:55;9.90;99.90
24902;DHT22;31328;51.402;0.016;2023-02-03T00:36:22;9.90;99.90
24902;DHT22;31328;51.402;0.016;2023-02-03T00:38:49;10.00;99.90
24902;DHT22;31328;51.402;0.016;2023-02-03T00:41:16;10.00;99.90
24902;DHT22;31328;51.402;0.016;2023-02-03T00:43:43;10.00;99.90
24902;DHT22;31328;51.402;0.016;2023-02-03T00:46:09;10.00;99.90
24902;DHT22;31328;51.402;0.016;2023-02-03T00:48:36;10.10;99.90
24902;DHT22;31328;51.402;0.016;2023-02-03T00:51:02;10.10;99.90
24902;DHT22;31328;51.402;0.016;2023-02-03T00:53:29;10.10;99.90
24902;DHT22;31328;51.402;0.016;2023-02-03T00:55:55;10.10;99.90
24902;DHT22;31328;51.402;0.016;2023-02-03T00:58:21;10.10;99.90
24902;DHT22;31328;51.402;0.016;2023-02-03T01:00:48;10.20;99.90
24902;DHT22;31328;51.402;0.016;2023-02-03T01:03:15;10.20;99.90
24902;DHT22;31328;51.402;0.016;2023-02-03T01:05:42;10.20;99.90
24902;DHT22;31328;51.402;0.016;2023-02-03T01:08:08;10.20;99.90
24902;DHT22;31328;51.402;0.016;2023-02-03T01:10:37;10.30;99.90
24902;DHT22;31328;51.402;0.016;2023-02-03T01:13:03;10.20;99.90
24902;DHT22;31328;51.402;0.016;2023-02-03T01:15:30;10.30;99.90
24902;DHT22;31328;51.402;0.016;2023-02-03T01:17:57;10.30;99.90
24902;DHT22;31328;51.402;0.016;2023-02-03T01:20:23;10.30;99.90
24902;DHT22;31328;51.402;0.016;2023-02-03T01:22:50;10.30;99.90
24902;DHT22;31328;51.402;0.016;2023-02-03T01:25:16;10.30;99.90
24902;DHT22;31328;51.402;0.016;2023-02-03T01:27:43;10.40;99.90
24902;DHT22;31328;51.402;0.016;2023-02-03T01:30:10;10.40;99.90
24902;DHT22;31328;51.402;0.016;2023-02-03T01:32:36;10.40;99.90
24902;DHT22;31328;51.402;0.016;2023-02-03T01:35:04;10.40;99.90
24902;DHT22;31328;51.402;0.016;2023-02-03T01:37:30;10.40;99.90
24902;DHT22;31328;51.402;0.016;2023-02-03T01:39:57;10.40;99.90
24902;DHT22;31328;51.402;0.016;2023-02-03T01:42:23;10.40;99.90
24902;DHT22;31328;51.402;0.016;2023-02-03T01:44:50;10.50;99.90
24902;DHT22;31328;51.402;0.016;2023-02-03T01:47:27;10.50;99.90
24902;DHT22;31328;51.402;0.016;2023-02-03T01:50:15;10.50;99.90
24902;DHT22;31328;51.402;0.016;2023-02-03T01:52:45;10.50;99.90
24902;DHT22;31328;51.402;0.016;2023-02-03T01:55:17;10.50;99.90
24902;DHT22;31328;51.402;0.016;2023-02-03T01:57:50;10.50;99.90
24902;DHT22;31328;51.402;0.016;2023-02-03T02:00:17;10.50;99.90
24902;DHT22;31328;51.402;0.016;2023-02-03T02:02:45;10.50;99.90
24902;DHT22;31328;51.402;0.016;2023-02-03T02:07:48;10.50;99.90
24902;DHT22;31328;51.402;0.016;2023-02-03T02:10:15;10.50;99.90
24902;DHT22;31328;51.402;0.016;2023-02-03T02:12:42;10.50;99.90
24902;DHT22;31328;51.402;0.016;2023-02-03T02:15:09;10.50;99.90
24902;DHT22;31328;51.402;0.016;2023-02-03T02:23:10;10.50;99.90
24902;DHT22;31328;51.402;0.016;2023-02-03T02:37:36;10.50;99.90
24902;DHT22;31328;51.402;0.016;2023-02-03T02:43:07;10.50;99.90
24902;DHT22;31328;51.402;0.016;2023-02-03T02:45:44;10.50;99.90
24902;DHT22;31328;51.402;0.016;2023-02-03T02:51:11;10.50;99.90
24902;DHT22;31328;51.402;0.016;2023-02-03T02:53:44;10.50;99.90
24902;DHT22;31328;51.402;0.016;2023-02-03T02:56:12;10.50;99.90
24902;DHT22;31328;51.402;0.016;2023-02-03T02:58:41;10.50;99.90
24902;DHT22;31328;51.402;0.016;2023-02-03T03:01:12;10.50;99.90
24902;DHT22;31328;51.402;0.016;2023-02-03T03:03:39;10.50;99.90
24902;DHT22;31328;51.402;0.016;2023-02-03T03:06:15;10.50;99.90
24902;DHT22;31328;51.402;0.016;2023-02-03T03:08:51;10.50;99.90
24902;DHT22;31328;51.402;0.016;2023-02-03T03:11:23;10.50;99.90
24902;DHT22;31328;51.402;0.016;2023-02-03T03:13:53;10.50;99.90
24902;DHT22;31328;51.402;0.016;2023-02-03T03:16:28;10.50;99.90
24902;DHT22;31328;51.402;0.016;2023-02-03T03:18:59;10.50;99.90
24902;DHT22;31328;51.402;0.016;2023-02-03T03:21:39;10.50;99.90
24902;DHT22;31328;51.402;0.016;2023-02-03T03:24:09;10.50;99.90
24902;DHT22;31328;51.402;0.016;2023-02-03T03:26:51;10.50;99.90
24902;DHT22;31328;51.402;0.016;2023-02-03T03:29:42;10.50;99.90
24902;DHT22;31328;51.402;0.016;2023-02-03T03:32:10;10.40;99.90
24902;DHT22;31328;51.402;0.016;2023-02-03T03:34:37;10.50;99.90
24902;DHT22;31328;51.402;0.016;2023-02-03T03:37:15;10.40;99.90
24902;DHT22;31328;51.402;0.016;2023-02-03T03:39:52;10.40;99.90
24902;DHT22;31328;51.402;0.016;2023-02-03T03:42:23;10.40;99.90
24902;DHT22;31328;51.402;0.016;2023-02-03T03:45:02;10.40;99.90
24902;DHT22;31328;51.402;0.016;2023-02-03T03:47:37;10.40;99.90
24902;DHT22;31328;51.402;0.016;2023-02-03T03:50:08;10.30;99.90
24902;DHT22;31328;51.402;0.016;2023-02-03T03:52:35;10.30;99.90
24902;DHT22;31328;51.402;0.016;2023-02-03T03:55:05;10.20;99.90
24902;DHT22;31328;51.402;0.016;2023-02-03T03:57:37;10.20;99.90
24902;DHT22;31328;51.402;0.016;2023-02-03T04:00:08;10.20;99.90
24902;DHT22;31328;51.402;0.016;2023-02-03T04:02:41;10.10;99.90
24902;DHT22;31328;51.402;0.016;2023-02-03T04:05:12;10.10;99.90
24902;DHT22;31328;51.402;0.016;2023-02-03T04:07:42;10.10;99.90
24902;DHT22;31328;51.402;0.016;2023-02-03T04:10:32;10.00;99.90
24902;DHT22;31328;51.402;0.016;2023-02-03T04:12:59;10.00;99.90
24902;DHT22;31328;51.402;0.016;2023-02-03T04:15:26;10.00;99.90
24902;DHT22;31328;51.402;0.016;2023-02-03T04:17:53;10.00;99.90
24902;DHT22;31328;51.402;0.016;2023-02-03T04:20:20;10.00;99.90
24902;DHT22;31328;51.402;0.016;2023-02-03T04:22:46;9.90;99.90
24902;DHT22;31328;51.402;0.016;2023-02-03T04:25:13;9.90;99.90
24902;DHT22;31328;51.402;0.016;2023-02-03T04:27:39;9.90;99.90
24902;DHT22;31328;51.402;0.016;2023-02-03T04:30:06;9.90;99.90
24902;DHT22;31328;51.402;0.016;2023-02-03T04:32:32;9.90;99.90
24902;DHT22;31328;51.402;0.016;2023-02-03T04:35:02;9.90;99.90
24902;DHT22;31328;51.402;0.016;2023-02-03T04:37:28;9.90;99.90
24902;DHT22;31328;51.402;0.016;2023-02-03T04:39:54;9.80;99.90
24902;DHT22;31328;51.402;0.016;2023-02-03T04:42:22;9.80;99.90
24902;DHT22;31328;51.402;0.016;2023-02-03T04:44:49;9.80;99.90
24902;DHT22;31328;51.402;0.016;2023-02-03T04:47:17;9.80;99.90
24902;DHT22;31328;51.402;0.016;2023-02-03T04:49:43;9.80;99.90
24902;DHT22;31328;51.402;0.016;2023-02-03T04:52:10;9.80;99.90
24902;DHT22;31328;51.402;0.016;2023-02-03T04:54:37;9.80;99.90
24902;DHT22;31328;51.402;0.016;2023-02-03T04:57:04;9.80;99.90
24902;DHT22;31328;51.402;0.016;2023-02-03T04:59:30;9.70;99.90
24902;DHT22;31328;51.402;0.016;2023-02-03T05:01:57;9.80;99.90
24902;DHT22;31328;51.402;0.016;2023-02-03T05:04:23;9.70;99.90
24902;DHT22;31328;51.402;0.016;2023-02-03T05:06:50;9.80;99.90
24902;DHT22;31328;51.402;0.016;2023-02-03T05:09:16;9.80;99.90
24902;DHT22;31328;51.402;0.016;2023-02-03T05:11:42;9.80;99.90
24902;DHT22;31328;51.402;0.016;2023-02-03T05:14:09;9.80;99.90
24902;DHT22;31328;51.402;0.016;2023-02-03T05:16:35;9.80;99.90
24902;DHT22;31328;51.402;0.016;2023-02-03T05:19:01;9.90;99.90
24902;DHT22;31328;51.402;0.016;2023-02-03T05:21:28;9.90;99.90
24902;DHT22;31328;51.402;0.016;2023-02-03T05:23:54;9.90;99.90
24902;DHT22;31328;51.402;0.016;2023-02-03T05:26:21;10.00;99.90
24902;DHT22;31328;51.402;0.016;2023-02-03T05:28:47;10.00;99.90
24902;DHT22;31328;51.402;0.016;2023-02-03T05:31:13;9.90;99.90
24902;DHT22;31328;51.402;0.016;2023-02-03T05:33:40;10.00;99.90
24902;DHT22;31328;51.402;0.016;2023-02-03T05:36:06;9.90;99.90
24902;DHT22;31328;51.402;0.016;2023-02-03T05:38:33;9.90;99.90
24902;DHT22;31328;51.402;0.016;2023-02-03T05:40:59;9.90;99.90
24902;DHT22;31328;51.402;0.016;2023-02-03T05:43:44;9.90;99.90
24902;DHT22;31328;51.402;0.016;2023-02-03T05:46:10;9.90;99.90
24902;DHT22;31328;51.402;0.016;2023-02-03T05:48:37;9.80;99.90
24902;DHT22;31328;51.402;0.016;2023-02-03T05:51:03;9.80;99.90
24902;DHT22;31328;51.402;0.016;2023-02-03T05:53:30;9.80;99.90
24902;DHT22;31328;51.402;0.016;2023-02-03T05:55:56;9.80;99.90
24902;DHT22;31328;51.402;0.016;2023-02-03T05:58:22;9.80;99.90
24902;DHT22;31328;51.402;0.016;2023-02-03T06:00:48;9.80;99.90
24902;DHT22;31328;51.402;0.016;2023-02-03T06:03:15;9.80;99.90
24902;DHT22;31328;51.402;0.016;2023-02-03T06:05:41;9.80;99.90
24902;DHT22;31328;51.402;0.016;2023-02-03T06:08:09;9.80;99.90
24902;DHT22;31328;51.402;0.016;2023-02-03T06:10:36;9.80;99.90
24902;DHT22;31328;51.402;0.016;2023-02-03T06:13:08;9.80;99.90
24902;DHT22;31328;51.402;0.016;2023-02-03T06:15:35;9.80;99.90
24902;DHT22;31328;51.402;0.016;2023-02-03T06:18:01;9.80;99.90
24902;DHT22;31328;51.402;0.016;2023-02-03T06:20:27;9.80;99.90
24902;DHT22;31328;51.402;0.016;2023-02-03T06:22:54;9.80;99.90
24902;DHT22;31328;51.402;0.016;2023-02-03T06:25:20;9.80;99.90
24902;DHT22;31328;51.402;0.016;2023-02-03T06:27:48;9.80;99.90
24902;DHT22;31328;51.402;0.016;2023-02-03T06:30:15;9.80;99.90
24902;DHT22;31328;51.402;0.016;2023-02-03T06:32:41;9.70;99.90
24902;DHT22;31328;51.402;0.016;2023-02-03T06:35:07;9.80;99.90
24902;DHT22;31328;51.402;0.016;2023-02-03T06:37:34;9.80;99.90
24902;DHT22;31328;51.402;0.016;2023-02-03T06:40:01;9.80;99.90
24902;DHT22;31328;51.402;0.016;2023-02-03T06:42:29;9.80;99.90
24902;DHT22;31328;51.402;0.016;2023-02-03T06:44:55;9.70;99.90
24902;DHT22;31328;51.402;0.016;2023-02-03T06:47:22;9.80;99.90
24902;DHT22;31328;51.402;0.016;2023-02-03T06:49:48;9.80;99.90
24902;DHT22;31328;51.402;0.016;2023-02-03T06:52:14;9.70;99.90
24902;DHT22;31328;51.402;0.016;2023-02-03T06:54:41;9.70;99.90
24902;DHT22;31328;51.402;0.016;2023-02-03T06:57:07;9.70;99.90
24902;DHT22;31328;51.402;0.016;2023-02-03T06:59:33;9.70;99.90
24902;DHT22;31328;51.402;0.016;2023-02-03T07:01:59;9.70;99.90
24902;DHT22;31328;51.402;0.016;2023-02-03T07:04:26;9.70;99.90
24902;DHT22;31328;51.402;0.016;2023-02-03T07:06:58;9.80;99.90
24902;DHT22;31328;51.402;0.016;2023-02-03T07:09:24;9.70;99.90
24902;DHT22;31328;51.402;0.016;2023-02-03T07:11:50;9.70;99.90
24902;DHT22;31328;51.402;0.016;2023-02-03T07:14:17;9.70;99.90
24902;DHT22;31328;51.402;0.016;2023-02-03T07:16:43;9.70;99.90
24902;DHT22;31328;51.402;0.016;2023-02-03T07:19:09;9.70;99.90
24902;DHT22;31328;51.402;0.016;2023-02-03T07:21:36;9.70;99.90
24902;DHT22;31328;51.402;0.016;2023-02-03T07:24:02;9.70;99.90
24902;DHT22;31328;51.402;0.016;2023-02-03T07:26:28;9.70;99.90
24902;DHT22;31328;51.402;0.016;2023-02-03T07:28:55;9.80;99.90
24902;DHT22;31328;51.402;0.016;2023-02-03T07:31:21;9.70;99.90
24902;DHT22;31328;51.402;0.016;2023-02-03T07:33:47;9.80;99.90
24902;DHT22;31328;51.402;0.016;2023-02-03T07:36:14;9.80;99.90
24902;DHT22;31328;51.402;0.016;2023-02-03T07:38:40;9.80;99.90
24902;DHT22;31328;51.402;0.016;2023-02-03T07:41:06;9.70;99.90
24902;DHT22;31328;51.402;0.016;2023-02-03T07:43:33;9.70;99.90
24902;DHT22;31328;51.402;0.016;2023-02-03T07:45:59;9.70;99.90
24902;DHT22;31328;51.402;0.016;2023-02-03T07:48:27;9.70;99.90
24902;DHT22;31328;51.402;0.016;2023-02-03T07:50:53;9.70;99.90
24902;DHT22;31328;51.402;0.016;2023-02-03T07:53:19;9.70;99.90
24902;DHT22;31328;51.402;0.016;2023-02-03T07:55:46;9.70;99.90
24902;DHT22;31328;51.402;0.016;2023-02-03T07:58:12;9.70;99.90
24902;DHT22;31328;51.402;0.016;2023-02-03T08:00:38;9.70;99.90
24902;DHT22;31328;51.402;0.016;2023-02-03T08:03:05;9.70;99.90
24902;DHT22;31328;51.402;0.016;2023-02-03T08:05:31;9.70;99.90
24902;DHT22;31328;51.402;0.016;2023-02-03T08:07:57;9.70;99.90
24902;DHT22;31328;51.402;0.016;2023-02-03T08:10:24;9.80;99.90
24902;DHT22;31328;51.402;0.016;2023-02-03T08:12:54;9.80;99.90
24902;DHT22;31328;51.402;0.016;2023-02-03T08:15:21;9.80;99.90
24902;DHT22;31328;51.402;0.016;2023-02-03T08:17:50;9.80;99.90
24902;DHT22;31328;51.402;0.016;2023-02-03T08:20:17;9.80;99.90
24902;DHT22;31328;51.402;0.016;2023-02-03T08:22:44;9.80;99.90
24902;DHT22;31328;51.402;0.016;2023-02-03T08:25:11;9.80;99.90
24902;DHT22;31328;51.402;0.016;2023-02-03T08:27:37;9.80;99.90
24902;DHT22;31328;51.402;0.016;2023-02-03T08:30:05;9.80;99.90
24902;DHT22;31328;51.402;0.016;2023-02-03T08:32:32;9.80;99.90
24902;DHT22;31328;51.402;0.016;2023-02-03T08:34:58;9.80;99.90
24902;DHT22;31328;51.402;0.016;2023-02-03T08:37:25;9.80;99.90
24902;DHT22;31328;51.402;0.016;2023-02-03T08:39:53;9.90;99.90
24902;DHT22;31328;51.402;0.016;2023-02-03T08:42:19;9.90;99.90
24902;DHT22;31328;51.402;0.016;2023-02-03T08:44:46;9.90;99.90
24902;DHT22;31328;51.402;0.016;2023-02-03T08:47:14;9.90;99.90
24902;DHT22;31328;51.402;0.016;2023-02-03T08:49:40;10.00;99.90
24902;DHT22;31328;51.402;0.016;2023-02-03T08:52:10;10.00;99.90
24902;DHT22;31328;51.402;0.016;2023-02-03T08:54:36;10.00;99.90
24902;DHT22;31328;51.402;0.016;2023-02-03T08:57:03;10.10;99.90
24902;DHT22;31328;51.402;0.016;2023-02-03T08:59:31;10.00;99.90
24902;DHT22;31328;51.402;0.016;2023-02-03T09:02:04;10.10;99.90
24902;DHT22;31328;51.402;0.016;2023-02-03T09:04:32;10.10;99.90
24902;DHT22;31328;51.402;0.016;2023-02-03T09:06:59;10.10;99.90
24902;DHT22;31328;51.402;0.016;2023-02-03T09:09:27;10.20;99.90
24902;DHT22;31328;51.402;0.016;2023-02-03T09:11:54;10.20;99.90
24902;DHT22;31328;51.402;0.016;2023-02-03T09:14:25;10.20;99.90
24902;DHT22;31328;51.402;0.016;2023-02-03T09:16:52;10.30;99.90
24902;DHT22;31328;51.402;0.016;2023-02-03T09:19:18;10.30;99.90
24902;DHT22;31328;51.402;0.016;2023-02-03T09:21:44;10.30;99.90
24902;DHT22;31328;51.402;0.016;2023-02-03T09:24:15;10.30;99.90
24902;DHT22;31328;51.402;0.016;2023-02-03T09:26:41;10.40;99.90
24902;DHT22;31328;51.402;0.016;2023-02-03T09:29:07;10.40;99.90
24902;DHT22;31328;51.402;0.016;2023-02-03T09:31:34;10.40;99.90
24902;DHT22;31328;51.402;0.016;2023-02-03T09:34:00;10.50;99.90
24902;DHT22;31328;51.402;0.016;2023-02-03T09:36:26;10.50;99.90
24902;DHT22;31328;51.402;0.016;2023-02-03T09:38:52;10.50;99.90
24902;DHT22;31328;51.402;0.016;2023-02-03T09:46:38;10.60;99.90
24902;DHT22;31328;51.402;0.016;2023-02-03T09:49:18;10.60;99.90
24902;DHT22;31328;51.402;0.016;2023-02-03T09:51:58;10.70;99.90
24902;DHT22;31328;51.402;0.016;2023-02-03T09:57:19;10.80;99.90
24902;DHT22;31328;51.402;0.016;2023-02-03T09:59:46;10.80;99.90
24902;DHT22;31328;51.402;0.016;2023-02-03T10:02:36;10.80;99.90
24902;DHT22;31328;51.402;0.016;2023-02-03T10:05:24;10.90;99.90
24902;DHT22;31328;51.402;0.016;2023-02-03T10:11:00;11.00;99.90
24902;DHT22;31328;51.402;0.016;2023-02-03T10:13:40;11.00;99.90
24902;DHT22;31328;51.402;0.016;2023-02-03T10:16:20;11.00;99.90
24902;DHT22;31328;51.402;0.016;2023-02-03T10:18:52;11.00;99.90
24902;DHT22;31328;51.402;0.016;2023-02-03T10:21:46;11.10;99.90
24902;DHT22;31328;51.402;0.016;2023-02-03T10:24:20;11.20;99.90
24902;DHT22;31328;51.402;0.016;2023-02-03T10:26:48;11.20;99.90
24902;DHT22;31328;51.402;0.016;2023-02-03T10:29:25;11.20;99.90
24902;DHT22;31328;51.402;0.016;2023-02-03T10:31:54;11.20;99.90
24902;DHT22;31328;51.402;0.016;2023-02-03T10:34:24;11.20;99.90
24902;DHT22;31328;51.402;0.016;2023-02-03T10:36:54;11.20;99.90
24902;DHT22;31328;51.402;0.016;2023-02-03T10:39:31;11.20;99.90
24902;DHT22;31328;51.402;0.016;2023-02-03T10:42:02;11.20;99.90
24902;DHT22;31328;51.402;0.016;2023-02-03T10:44:40;11.30;99.90
24902;DHT22;31328;51.402;0.016;2023-02-03T10:49:47;11.30;99.90
24902;DHT22;31328;51.402;0.016;2023-02-03T10:52:41;11.40;99.90
24902;DHT22;31328;51.402;0.016;2023-02-03T10:55:29;11.40;99.90
24902;DHT22;31328;51.402;0.016;2023-02-03T10:57:57;11.40;99.90
24902;DHT22;31328;51.402;0.016;2023-02-03T11:00:29;11.40;99.90
24902;DHT22;31328;51.402;0.016;2023-02-03T11:03:03;11.50;99.90
24902;DHT22;31328;51.402;0.016;2023-02-03T11:05:30;11.50;99.90
24902;DHT22;31328;51.402;0.016;2023-02-03T11:07:56;11.60;99.90
24902;DHT22;31328;51.402;0.016;2023-02-03T11:13:15;11.60;99.90
24902;DHT22;31328;51.402;0.016;2023-02-03T11:15:55;11.70;99.90
24902;DHT22;31328;51.402;0.016;2023-02-03T11:21:19;11.90;99.90
24902;DHT22;31328;51.402;0.016;2023-02-03T11:24:00;11.90;99.90
24902;DHT22;31328;51.402;0.016;2023-02-03T11:26:33;12.00;99.90
24902;DHT22;31328;51.402;0.016;2023-02-03T11:29:03;12.10;99.90
24902;DHT22;31328;51.402;0.016;2023-02-03T11:31:35;12.10;99.90
24902;DHT22;31328;51.402;0.016;2023-02-03T11:34:14;12.20;99.90
24902;DHT22;31328;51.402;0.016;2023-02-03T11:36:41;12.20;99.90
24902;DHT22;31328;51.402;0.016;2023-02-03T11:39:29;12.20;99.90
24902;DHT22;31328;51.402;0.016;2023-02-03T11:42:01;12.30;99.90
24902;DHT22;31328;51.402;0.016;2023-02-03T11:44:29;12.30;99.90
24902;DHT22;31328;51.402;0.016;2023-02-03T11:47:17;12.30;99.90
24902;DHT22;31328;51.402;0.016;2023-02-03T11:50:18;12.40;99.90
24902;DHT22;31328;51.402;0.016;2023-02-03T11:52:53;12.50;99.90
24902;DHT22;31328;51.402;0.016;2023-02-03T12:09:14;12.60;99.90
24902;DHT22;31328;51.402;0.016;2023-02-03T12:22:57;12.70;99.90
24902;DHT22;31328;51.402;0.016;2023-02-03T12:34:32;12.90;99.90
24902;DHT22;31328;51.402;0.016;2023-02-03T12:37:22;12.90;99.90
24902;DHT22;31328;51.402;0.016;2023-02-03T12:39:57;13.00;99.90
24902;DHT22;31328;51.402;0.016;2023-02-03T12:42:36;13.00;99.90
24902;DHT22;31328;51.402;0.016;2023-02-03T12:47:50;13.10;99.90
24902;DHT22;31328;51.402;0.016;2023-02-03T12:53:24;13.10;99.90
24902;DHT22;31328;51.402;0.016;2023-02-03T12:56:14;13.10;99.90
24902;DHT22;31328;51.402;0.016;2023-02-03T12:59:01;13.20;99.90
24902;DHT22;31328;51.402;0.016;2023-02-03T13:01:32;13.20;99.90
24902;DHT22;31328;51.402;0.016;2023-02-03T13:04:33;13.10;99.90
24902;DHT22;31328;51.402;0.016;2023-02-03T13:07:01;13.10;99.90
24902;DHT22;31328;51.402;0.016;2023-02-03T13:12:36;13.10;99.90
24902;DHT22;31328;51.402;0.016;2023-02-03T13:18:03;13.10;99.90
24902;DHT22;31328;51.402;0.016;2023-02-03T13:20:32;13.10;99.90
24902;DHT22;31328;51.402;0.016;2023-02-03T13:23:05;13.10;99.90
24902;DHT22;31328;51.402;0.016;2023-02-03T13:28:58;13.10;99.90
24902;DHT22;31328;51.402;0.016;2023-02-03T13:31:55;13.20;99.90
24902;DHT22;31328;51.402;0.016;2023-02-03T13:37:24;13.20;99.90
24902;DHT22;31328;51.402;0.016;2023-02-03T13:43:02;13.30;99.90
24902;DHT22;31328;51.402;0.016;2023-02-03T13:45:51;13.40;99.90
24902;DHT22;31328;51.402;0.016;2023-02-03T13:48:21;13.40;99.90
24902;DHT22;31328;51.402;0.016;2023-02-03T13:50:50;13.40;99.90
24902;DHT22;31328;51.402;0.016;2023-02-03T13:53:26;13.40;99.90
24902;DHT22;31328;51.402;0.016;2023-02-03T13:55:59;13.50;99.90
24902;DHT22;31328;51.402;0.016;2023-02-03T13:58:30;13.40;99.90
24902;DHT22;31328;51.402;0.016;2023-02-03T14:03:51;13.50;99.90
24902;DHT22;31328;51.402;0.016;2023-02-03T14:14:58;13.70;99.90
24902;DHT22;31328;51.402;0.016;2023-02-03T14:20:00;13.80;99.90
24902;DHT22;31328;51.402;0.016;2023-02-03T14:22:27;13.90;99.90
24902;DHT22;31328;51.402;0.016;2023-02-03T14:24:56;13.90;99.90
24902;DHT22;31328;51.402;0.016;2023-02-03T14:27:26;13.90;99.90
24902;DHT22;31328;51.402;0.016;2023-02-03T14:30:11;14.00;99.90
24902;DHT22;31328;51.402;0.016;2023-02-03T14:32:59;14.00;99.90
24902;DHT22;31328;51.402;0.016;2023-02-03T14:35:36;14.00;99.90
24902;DHT22;31328;51.402;0.016;2023-02-03T14:38:10;14.00;99.90
24902;DHT22;31328;51.402;0.016;2023-02-03T14:40:51;14.00;99.90
24902;DHT22;31328;51.402;0.016;2023-02-03T14:43:44;13.90;99.90
24902;DHT22;31328;51.402;0.016;2023-02-03T14:58:19;13.90;99.90
24902;DHT22;31328;51.402;0.016;2023-02-03T15:00:48;13.80;99.90
24902;DHT22;31328;51.402;0.016;2023-02-03T15:03:19;13.80;99.90
24902;DHT22;31328;51.402;0.016;2023-02-03T15:05:57;13.70;99.90
24902;DHT22;31328;51.402;0.016;2023-02-03T15:08:46;13.70;99.90
24902;DHT22;31328;51.402;0.016;2023-02-03T15:11:23;13.60;99.90
24902;DHT22;31328;51.402;0.016;2023-02-03T15:13:51;13.60;99.90
24902;DHT22;31328;51.402;0.016;2023-02-03T15:16:20;13.50;99.90
24902;DHT22;31328;51.402;0.016;2023-02-03T15:18:57;13.50;99.90
24902;DHT22;31328;51.402;0.016;2023-02-03T15:21:24;13.40;99.90
24902;DHT22;31328;51.402;0.016;2023-02-03T15:23:51;13.40;99.90
24902;DHT22;31328;51.402;0.016;2023-02-03T15:26:19;13.30;99.90
24902;DHT22;31328;51.402;0.016;2023-02-03T15:29:00;13.30;99.90
24902;DHT22;31328;51.402;0.016;2023-02-03T15:31:36;13.20;99.90
24902;DHT22;31328;51.402;0.016;2023-02-03T15:34:09;13.10;99.90
24902;DHT22;31328;51.402;0.016;2023-02-03T15:36:47;13.10;99.90
24902;DHT22;31328;51.402;0.016;2023-02-03T15:41:59;13.00;99.90
24902;DHT22;31328;51.402;0.016;2023-02-03T15:44:33;13.00;99.90
24902;DHT22;31328;51.402;0.016;2023-02-03T15:47:03;13.00;99.90
24902;DHT22;31328;51.402;0.016;2023-02-03T15:49:37;13.00;99.90
24902;DHT22;31328;51.402;0.016;2023-02-03T15:52:12;12.90;99.90
24902;DHT22;31328;51.402;0.016;2023-02-03T15:54:43;12.90;99.90
24902;DHT22;31328;51.402;0.016;2023-02-03T15:57:20;12.80;99.90
24902;DHT22;31328;51.402;0.016;2023-02-03T15:59:55;12.80;99.90
24902;DHT22;31328;51.402;0.016;2023-02-03T16:02:29;12.70;99.90
24902;DHT22;31328;51.402;0.016;2023-02-03T16:04:56;12.70;99.90
24902;DHT22;31328;51.402;0.016;2023-02-03T16:07:26;12.60;99.90
24902;DHT22;31328;51.402;0.016;2023-02-03T16:09:55;12.60;99.90
24902;DHT22;31328;51.402;0.016;2023-02-03T16:12:23;12.50;99.90
24902;DHT22;31328;51.402;0.016;2023-02-03T16:14:52;12.50;99.90
24902;DHT22;31328;51.402;0.016;2023-02-03T16:22:45;12.40;99.90
24902;DHT22;31328;51.402;0.016;2023-02-03T16:25:13;12.40;99.90
24902;DHT22;31328;51.402;0.016;2023-02-03T16:27:43;12.30;99.90
24902;DHT22;31328;51.402;0.016;2023-02-03T16:35:53;12.20;99.90
24902;DHT22;31328;51.402;0.016;2023-02-03T16:38:46;12.20;99.90
24902;DHT22;31328;51.402;0.016;2023-02-03T16:41:31;12.10;99.90
24902;DHT22;31328;51.402;0.016;2023-02-03T16:44:16;12.10;99.90
24902;DHT22;31328;51.402;0.016;2023-02-03T16:47:02;12.10;99.90
24902;DHT22;31328;51.402;0.016;2023-02-03T16:49:47;12.00;99.90
24902;DHT22;31328;51.402;0.016;2023-02-03T16:52:32;12.00;99.90
24902;DHT22;31328;51.402;0.016;2023-02-03T16:54:58;11.90;99.90
24902;DHT22;31328;51.402;0.016;2023-02-03T16:57:25;11.90;99.90
24902;DHT22;31328;51.402;0.016;2023-02-03T16:59:51;11.90;99.90
24902;DHT22;31328;51.402;0.016;2023-02-03T17:02:18;11.80;99.90
24902;DHT22;31328;51.402;0.016;2023-02-03T17:04:44;11.80;99.90
24902;DHT22;31328;51.402;0.016;2023-02-03T17:07:10;11.80;99.90
24902;DHT22;31328;51.402;0.016;2023-02-03T17:09:36;11.80;99.90
24902;DHT22;31328;51.402;0.016;2023-02-03T17:12:03;11.80;99.90
24902;DHT22;31328;51.402;0.016;2023-02-03T17:14:29;11.70;99.90
24902;DHT22;31328;51.402;0.016;2023-02-03T17:16:56;11.70;99.90
24902;DHT22;31328;51.402;0.016;2023-02-03T17:19:22;11.70;99.90
24902;DHT22;31328;51.402;0.016;2023-02-03T17:21:48;11.70;99.90
24902;DHT22;31328;51.402;0.016;2023-02-03T17:24:16;11.70;99.90
24902;DHT22;31328;51.402;0.016;2023-02-03T17:26:42;11.60;99.90
24902;DHT22;31328;51.402;0.016;2023-02-03T17:29:09;11.60;99.90
24902;DHT22;31328;51.402;0.016;2023-02-03T17:31:35;11.60;99.90
24902;DHT22;31328;51.402;0.016;2023-02-03T17:34:02;11.60;99.90
24902;DHT22;31328;51.402;0.016;2023-02-03T17:36:28;11.50;99.90
24902;DHT22;31328;51.402;0.016;2023-02-03T17:38:55;11.50;99.90
24902;DHT22;31328;51.402;0.016;2023-02-03T17:41:25;11.50;99.90
24902;DHT22;31328;51.402;0.016;2023-02-03T17:43:53;11.40;99.90
24902;DHT22;31328;51.402;0.016;2023-02-03T17:46:22;11.40;99.90
24902;DHT22;31328;51.402;0.016;2023-02-03T17:48:50;11.40;99.90
24902;DHT22;31328;51.402;0.016;2023-02-03T17:51:18;11.40;99.90
24902;DHT22;31328;51.402;0.016;2023-02-03T17:53:46;11.40;99.90
24902;DHT22;31328;51.402;0.016;2023-02-03T17:56:19;11.40;99.90
24902;DHT22;31328;51.402;0.016;2023-02-03T17:58:46;11.40;99.90
24902;DHT22;31328;51.402;0.016;2023-02-03T18:01:17;11.30;99.90
24902;DHT22;31328;51.402;0.016;2023-02-03T18:03:45;11.30;99.90
24902;DHT22;31328;51.402;0.016;2023-02-03T18:06:13;11.30;99.90
24902;DHT22;31328;51.402;0.016;2023-02-03T18:08:41;11.30;99.90
24902;DHT22;31328;51.402;0.016;2023-02-03T18:11:08;11.30;99.90
24902;DHT22;31328;51.402;0.016;2023-02-03T18:13:36;11.20;99.90
24902;DHT22;31328;51.402;0.016;2023-02-03T18:16:05;11.20;99.90